createdAt,value
2019-03-03T02:22:57.192Z,13.27
2019-03-03T02:25:26.585Z,14.43
2019-03-03T02:27:56.045Z,12.37
2019-03-03T02:30:25.428Z,12.07
2019-03-03T02:32:55.050Z,15.10
2019-03-03T02:35:24.417Z,12.40
2019-03-03T02:37:54.224Z,6.20
2019-03-03T02:40:25.288Z,10.43
2019-03-03T02:42:54.718Z,11.00
2019-03-03T02:45:24.139Z,11.20
2019-03-03T02:47:53.697Z,14.07
2019-03-03T02:50:23.119Z,10.50
2019-03-03T02:52:52.494Z,12.90
2019-03-03T02:55:22.165Z,11.27
2019-03-03T03:00:31.790Z,8.63
2019-03-03T03:06:02.756Z,8.00
2019-03-03T03:08:51.340Z,7.87
2019-03-03T03:53:48.698Z,10.30
2019-03-03T04:02:19.816Z,7.28
2019-03-03T04:05:08.451Z,4.83
2019-03-03T04:10:24.950Z,3.70
2019-03-03T04:13:08.216Z,8.20
2019-03-03T04:18:58.100Z,7.73
2019-03-03T04:21:46.596Z,4.60
2019-03-03T04:27:19.871Z,7.65
2019-03-03T04:30:08.534Z,5.50
2019-03-03T04:32:57.044Z,8.37
2019-03-03T04:35:45.560Z,4.50
2019-03-03T04:38:34.341Z,9.20
2019-03-03T04:50:04.172Z,7.53
2019-03-03T04:55:42.706Z,5.00
2019-03-03T04:58:31.489Z,7.37
2019-03-03T05:07:06.055Z,7.80
2019-03-03T05:09:54.630Z,9.70
2019-03-03T05:12:43.114Z,5.13
2019-03-03T05:18:10.815Z,10.17
2019-03-03T05:20:59.335Z,10.10
2019-03-03T05:23:28.704Z,8.67
2019-03-03T05:25:58.060Z,7.83
2019-03-03T05:28:27.684Z,12.17
2019-03-03T05:30:57.039Z,10.23
2019-03-03T05:33:28.792Z,7.73
2019-03-03T05:35:58.166Z,8.80
2019-03-03T05:38:27.588Z,12.40
2019-03-03T05:40:56.938Z,11.30
2019-03-03T05:43:26.638Z,11.03
2019-03-03T05:45:56.001Z,4.83
2019-03-03T05:48:25.906Z,7.00
2019-03-03T05:50:55.579Z,15.28
2019-03-03T05:53:24.957Z,7.23
2019-03-03T05:55:54.938Z,10.73
2019-03-03T05:58:24.586Z,11.83
2019-03-03T06:00:53.979Z,14.80
2019-03-03T06:03:23.357Z,13.40
2019-03-03T06:05:52.710Z,14.10
2019-03-03T06:08:22.087Z,10.17
2019-03-03T06:10:51.737Z,11.77
2019-03-03T06:13:21.111Z,16.87
2019-03-03T06:15:50.765Z,13.60
2019-03-03T06:18:20.158Z,14.50
2019-03-03T06:20:49.895Z,11.00
2019-03-03T06:23:19.234Z,8.07
2019-03-03T06:25:48.898Z,11.93
2019-03-03T06:28:18.563Z,8.67
2019-03-03T06:30:48.048Z,11.70
2019-03-03T06:33:17.715Z,11.22
2019-03-03T06:35:47.073Z,12.70
2019-03-03T06:38:31.323Z,13.50
2019-03-03T06:41:05.752Z,14.63
2019-03-03T06:43:35.134Z,17.97
2019-03-03T06:46:05.133Z,17.85
2019-03-03T06:48:34.844Z,23.43
2019-03-03T06:51:17.254Z,18.87
2019-03-03T06:53:47.132Z,11.90
2019-03-03T06:56:16.680Z,17.97
2019-03-03T06:58:46.250Z,22.47
2019-03-03T07:01:16.050Z,18.37
2019-03-03T07:03:45.465Z,20.07
2019-03-03T07:06:15.170Z,25.47
2019-03-03T07:08:44.957Z,17.67
2019-03-03T07:11:14.661Z,23.10
2019-03-03T07:14:03.468Z,22.43
2019-03-03T07:16:34.732Z,14.80
2019-03-03T07:19:04.342Z,7.10
2019-03-03T07:21:34.007Z,16.87
2019-03-03T07:24:03.389Z,10.40
2019-03-03T07:26:45.920Z,19.80
2019-03-03T07:29:15.538Z,14.90
2019-03-03T07:32:04.294Z,16.33
2019-03-03T07:34:33.691Z,17.50
2019-03-03T07:37:03.368Z,14.53
2019-03-03T07:39:53.499Z,15.23
2019-03-03T07:42:55.133Z,16.07
2019-03-03T07:45:25.451Z,15.43
2019-03-03T07:47:55.387Z,14.50
2019-03-03T07:50:25.397Z,15.98
2019-03-03T07:52:55.073Z,9.43
2019-03-03T07:55:24.479Z,16.07
2019-03-03T07:57:54.141Z,15.85
2019-03-03T08:00:23.524Z,11.73
2019-03-03T08:02:53.188Z,13.83
2019-03-03T08:05:22.572Z,11.90
2019-03-03T08:07:52.242Z,17.55
2019-03-03T08:10:21.666Z,15.37
2019-03-03T08:12:51.258Z,15.87
2019-03-03T08:15:20.689Z,10.07
2019-03-03T08:17:50.416Z,11.97
2019-03-03T08:20:19.809Z,12.70
2019-03-03T08:23:01.993Z,19.00
2019-03-03T08:25:32.418Z,19.73
2019-03-03T08:28:01.853Z,11.70
2019-03-03T08:30:32.860Z,10.20
2019-03-03T08:33:02.507Z,11.03
2019-03-03T08:53:09.108Z,15.07
2019-03-03T08:58:53.736Z,11.25
2019-03-03T09:01:42.526Z,13.70
2019-03-03T09:07:21.079Z,12.23
2019-03-03T09:10:09.737Z,10.00
2019-03-03T09:18:35.859Z,12.35
2019-03-03T09:21:24.667Z,9.80
2019-03-03T09:24:14.116Z,16.70
2019-03-03T09:27:02.796Z,13.70
2019-03-03T09:32:39.423Z,12.87
2019-03-03T09:49:34.032Z,12.68
2019-03-03T09:52:22.828Z,10.15
2019-03-03T09:55:11.305Z,9.93
2019-03-03T09:57:59.962Z,12.40
2019-03-03T10:00:48.684Z,11.37
2019-03-03T10:03:32.201Z,10.32
2019-03-03T10:06:21.196Z,10.57
2019-03-03T10:09:09.818Z,8.90
2019-03-03T10:20:53.906Z,7.70
2019-03-03T10:26:40.433Z,7.70
2019-03-03T10:32:44.100Z,8.23
2019-03-03T10:35:52.210Z,6.65
2019-03-03T10:38:41.055Z,9.20
2019-03-03T10:41:29.562Z,5.90
2019-03-03T10:44:18.056Z,8.67
2019-03-03T10:47:07.158Z,8.28
2019-03-03T10:49:55.939Z,7.92
2019-03-03T10:52:44.472Z,8.50
2019-03-03T10:58:29.260Z,7.90
2019-03-03T11:04:13.997Z,12.23
2019-03-03T11:07:02.501Z,8.43
2019-03-03T11:12:41.119Z,8.97
2019-03-03T11:15:38.321Z,6.37
2019-03-03T11:18:27.395Z,10.35
2019-03-03T11:23:59.239Z,8.10
2019-03-03T11:26:48.033Z,6.33
2019-03-03T11:35:15.824Z,6.60
2019-03-03T11:38:04.326Z,6.87
2019-03-03T11:46:31.510Z,5.87
2019-03-03T12:01:04.459Z,5.95
2019-03-03T12:12:41.150Z,8.10
2019-03-03T13:30:47.897Z,10.50
2019-03-03T13:33:36.713Z,8.60
2019-03-03T13:36:46.443Z,7.95
2019-03-03T13:39:36.590Z,8.43
2019-03-03T13:42:25.070Z,10.43
2019-03-03T13:44:54.621Z,7.57
2019-03-03T13:47:23.980Z,11.03
2019-03-03T13:49:53.671Z,10.00
2019-03-03T13:52:43.955Z,9.37
2019-03-03T13:55:26.291Z,7.12
2019-03-03T13:57:55.635Z,8.03
2019-03-03T14:00:25.087Z,11.53
2019-03-03T14:02:54.499Z,9.47
2019-03-03T14:05:23.946Z,10.63
2019-03-03T14:07:53.590Z,8.80
2019-03-03T14:10:44.114Z,9.70
2019-03-03T14:25:20.022Z,12.88
2019-03-03T14:27:49.645Z,13.70
2019-03-03T14:30:38.703Z,11.70
2019-03-03T14:33:08.353Z,11.60
2019-03-03T14:35:37.837Z,10.93
2019-03-03T14:38:07.207Z,14.57
2019-03-03T14:40:36.792Z,13.43
2019-03-03T14:43:06.159Z,14.23
2019-03-03T14:45:37.201Z,12.67
2019-03-03T14:48:07.306Z,11.88
2019-03-03T14:50:36.928Z,11.43
2019-03-03T14:53:06.588Z,14.33
2019-03-03T14:55:35.961Z,14.53
2019-03-03T14:58:05.612Z,10.28
2019-03-03T15:00:35.007Z,12.20
2019-03-03T15:03:24.329Z,14.85
2019-03-03T15:05:53.974Z,11.63
2019-03-03T15:08:23.330Z,10.27
2019-03-03T15:10:52.826Z,8.67
2019-03-03T15:13:22.191Z,13.77
2019-03-03T15:16:11.249Z,7.60
2019-03-03T15:18:40.774Z,8.57
2019-03-03T15:21:10.440Z,8.03
2019-03-03T15:23:39.924Z,7.97
2019-03-03T15:26:11.069Z,9.17
2019-03-03T15:28:40.708Z,8.80
2019-03-03T15:31:10.173Z,8.17
2019-03-03T15:33:59.152Z,9.55
2019-03-03T15:36:28.836Z,7.00
2019-03-03T15:38:58.178Z,11.10
2019-03-03T15:41:29.181Z,8.27
2019-03-03T15:43:58.877Z,7.90
2019-03-03T15:46:28.244Z,9.07
2019-03-03T15:48:57.922Z,5.90
2019-03-03T15:51:27.554Z,5.13
2019-03-03T15:53:57.397Z,7.00
2019-03-03T15:56:27.071Z,6.20
2019-03-03T15:58:56.686Z,4.13
2019-03-03T16:01:26.121Z,5.23
2019-03-03T16:03:55.462Z,4.17
2019-03-03T16:06:24.946Z,5.53
2019-03-03T16:08:54.292Z,5.17
2019-03-03T16:11:23.945Z,5.87
2019-03-03T16:13:53.289Z,5.13
2019-03-03T16:16:23.371Z,4.97
2019-03-03T16:18:52.721Z,6.00
2019-03-03T16:21:22.107Z,6.30
2019-03-03T16:23:51.459Z,6.87
2019-03-03T16:26:21.153Z,8.95
2019-03-03T16:28:50.486Z,7.53
2019-03-03T16:31:20.107Z,6.93
2019-03-03T16:33:49.483Z,8.70
2019-03-03T16:36:38.706Z,7.33
2019-03-03T16:39:08.356Z,8.27
2019-03-03T16:41:37.721Z,7.23
2019-03-03T16:44:07.595Z,10.10
2019-03-03T16:46:37.237Z,10.40
2019-03-03T16:49:06.597Z,9.80
2019-03-03T16:51:36.171Z,11.27
2019-03-03T16:54:05.551Z,11.10
2019-03-03T16:56:35.226Z,12.93
2019-03-03T16:59:04.636Z,10.83
2019-03-03T17:01:34.329Z,8.47
2019-03-03T17:04:03.704Z,13.30
2019-03-03T17:06:33.325Z,8.57
2019-03-03T17:26:51.112Z,12.60
2019-03-03T17:29:21.149Z,12.33
2019-03-03T17:31:50.503Z,13.80
2019-03-03T17:34:20.157Z,12.73
2019-03-03T17:36:49.507Z,8.00
2019-03-03T17:39:19.184Z,14.05
2019-03-03T17:41:48.536Z,15.73
2019-03-03T17:44:17.926Z,10.75
2019-03-03T17:46:47.522Z,16.47
2019-03-03T17:49:16.926Z,13.90
2019-03-03T17:51:46.340Z,17.13
2019-03-03T17:54:15.857Z,10.80
2019-03-03T17:56:45.470Z,10.33
2019-03-03T17:59:34.762Z,13.10
2019-03-03T18:02:04.528Z,8.43
2019-03-03T18:04:35.517Z,13.07
2019-03-03T18:07:04.922Z,12.90
2019-03-03T18:09:34.449Z,11.67
2019-03-03T18:12:03.897Z,8.77
2019-03-03T18:14:33.494Z,11.87
2019-03-03T18:17:03.826Z,11.63
2019-03-03T18:22:55.764Z,11.07
2019-03-03T18:25:25.424Z,13.38
2019-03-03T18:27:54.837Z,9.23
2019-03-03T18:30:43.823Z,10.63
2019-03-03T18:33:13.546Z,11.77
2019-03-03T18:35:42.955Z,10.17
2019-03-03T18:38:12.615Z,11.83
2019-03-03T18:40:41.977Z,12.23
2019-03-03T18:43:11.918Z,15.40
2019-03-03T18:45:41.637Z,13.43
2019-03-03T18:48:11.003Z,15.90
2019-03-03T18:50:40.713Z,12.90
2019-03-03T18:53:10.093Z,10.90
2019-03-03T18:55:39.799Z,12.83
2019-03-03T18:58:09.455Z,12.73
2019-03-03T19:00:38.865Z,10.43
2019-03-03T19:03:08.838Z,11.43
2019-03-03T19:11:35.674Z,11.93
2019-03-03T19:14:05.368Z,13.33
2019-03-03T19:16:34.766Z,9.00
2019-03-03T19:19:04.186Z,13.17
2019-03-03T19:21:33.788Z,10.40
2019-03-03T19:24:04.076Z,10.80
2019-03-03T19:26:35.071Z,14.80
2019-03-03T19:29:04.460Z,12.67
2019-03-03T19:31:33.902Z,12.10
2019-03-03T19:34:04.295Z,9.03
2019-03-03T19:36:33.859Z,6.33
2019-03-03T19:41:49.087Z,7.40
2019-03-03T19:44:18.499Z,13.20
2019-03-03T19:46:47.922Z,5.57
2019-03-03T19:49:17.304Z,11.83
2019-03-03T19:51:46.832Z,9.20
2019-03-03T19:54:16.619Z,7.95
2019-03-03T19:56:45.980Z,6.83
2019-03-03T19:59:17.264Z,8.23
2019-03-03T20:01:58.884Z,9.88
2019-03-03T20:04:28.291Z,8.87
2019-03-03T20:06:57.958Z,9.47
2019-03-03T20:09:27.589Z,9.30
2019-03-03T20:11:57.244Z,8.97
2019-03-03T20:14:26.903Z,7.17
2019-03-03T20:16:58.049Z,8.63
2019-03-03T20:19:27.671Z,11.30
2019-03-03T20:21:57.385Z,9.40
2019-03-03T20:24:26.935Z,9.43
2019-03-03T20:26:56.300Z,6.50
2019-03-03T20:29:25.977Z,7.10
2019-03-03T20:31:55.339Z,8.90
2019-03-03T20:34:25.012Z,9.00
2019-03-03T20:36:54.393Z,7.83
2019-03-03T20:42:05.319Z,11.63
2019-03-03T20:44:34.989Z,8.07
2019-03-03T20:47:04.416Z,6.53
2019-03-03T20:49:34.439Z,7.58
2019-03-03T20:52:34.959Z,7.97
2019-03-03T20:55:35.822Z,9.93
2019-03-03T20:58:05.605Z,6.23
2019-03-03T21:04:08.997Z,5.97
2019-03-03T21:06:38.368Z,11.93
2019-03-03T21:12:29.366Z,7.63
2019-03-03T21:14:58.717Z,9.07
2019-03-03T21:17:28.252Z,8.17
2019-03-03T21:20:28.591Z,5.43
2019-03-03T21:22:58.124Z,6.70
2019-03-03T21:25:27.513Z,8.37
2019-03-03T21:27:56.885Z,7.30
2019-03-03T21:30:27.905Z,10.33
2019-03-03T21:32:57.250Z,5.13
2019-03-03T21:35:26.620Z,10.63
2019-03-03T21:37:58.892Z,9.30
2019-03-03T21:40:28.385Z,6.42
2019-03-03T21:42:58.394Z,5.80
2019-03-03T21:45:28.986Z,7.30
2019-03-03T21:47:58.792Z,8.30
2019-03-03T21:50:30.130Z,11.77
2019-03-03T21:52:59.528Z,10.70
2019-03-03T21:55:30.192Z,11.80
2019-03-03T21:57:59.600Z,5.47
2019-03-03T22:00:35.226Z,10.00
2019-03-03T22:03:05.123Z,7.50
2019-03-03T22:05:34.592Z,5.90
2019-03-03T22:08:04.784Z,8.50
2019-03-03T22:10:34.277Z,6.47
2019-03-03T22:13:09.595Z,8.73
2019-03-03T22:15:38.940Z,7.00
2019-03-03T22:18:08.606Z,11.00
2019-03-03T22:20:38.286Z,8.08
2019-03-03T22:23:07.648Z,7.23
2019-03-03T22:25:37.604Z,6.70
2019-03-03T22:28:07.246Z,9.23
2019-03-03T22:30:36.613Z,9.80
2019-03-03T22:33:06.356Z,6.87
2019-03-03T22:35:35.717Z,10.30
2019-03-03T22:38:06.102Z,8.93
2019-03-03T22:40:36.464Z,10.37
2019-03-03T22:43:06.206Z,7.57
2019-03-03T22:45:35.580Z,7.47
2019-03-03T22:48:04.973Z,6.43
2019-03-03T22:50:34.459Z,9.07
2019-03-03T22:53:04.757Z,6.87
2019-03-03T22:56:05.265Z,3.90
2019-03-03T22:58:34.612Z,6.33
2019-03-03T23:01:44.879Z,6.25
2019-03-03T23:08:20.371Z,6.93
2019-03-03T23:11:20.488Z,7.00
2019-03-03T23:14:20.800Z,7.67
2019-03-03T23:17:30.126Z,6.10
2019-03-03T23:24:12.257Z,6.50
2019-03-03T23:26:41.647Z,9.70
2019-03-03T23:29:10.996Z,4.80
2019-03-03T23:31:40.937Z,6.62
2019-03-03T23:34:12.063Z,6.17
2019-03-03T23:36:47.436Z,8.45
2019-03-03T23:39:16.841Z,5.63
2019-03-03T23:41:46.566Z,11.33
2019-03-03T23:44:27.248Z,8.40
2019-03-03T23:46:56.717Z,9.20
2019-03-03T23:49:26.086Z,6.93
2019-03-03T23:51:55.830Z,9.63
2019-03-03T23:54:25.486Z,6.90
2019-03-03T23:56:55.093Z,6.33
2019-03-03T23:59:24.685Z,5.57
